sensor_id;sensor_type;location;lat;lon;timestamp;temperature;humidity
490;DHT22;231;48.120;11.576;2023-03-19T00:00:27;7.00;51.20
490;DHT22;231;48.120;11.576;2023-03-19T00:02:54;7.00;52.20
490;DHT22;231;48.120;11.576;2023-03-19T00:05:21;6.90;52.90
490;DHT22;231;48.120;11.576;2023-03-19T00:07:47;6.90;53.90
490;DHT22;231;48.120;11.576;2023-03-19T00:10:14;6.80;54.10
490;DHT22;231;48.120;11.576;2023-03-19T00:12:41;6.80;54.40
490;DHT22;231;48.120;11.576;2023-03-19T00:15:10;6.80;54.80
490;DHT22;231;48.120;11.576;2023-03-19T00:17:39;6.70;55.40
490;DHT22;231;48.120;11.576;2023-03-19T00:20:07;6.80;55.90
490;DHT22;231;48.120;11.576;2023-03-19T00:22:34;6.80;56.00
490;DHT22;231;48.120;11.576;2023-03-19T00:25:01;6.80;55.60
490;DHT22;231;48.120;11.576;2023-03-19T00:27:28;6.70;55.10
490;DHT22;231;48.120;11.576;2023-03-19T00:29:55;6.60;56.30
490;DHT22;231;48.120;11.576;2023-03-19T00:32:23;6.70;57.60
490;DHT22;231;48.120;11.576;2023-03-19T00:34:51;6.70;58.10
490;DHT22;231;48.120;11.576;2023-03-19T00:37:18;6.70;58.20
490;DHT22;231;48.120;11.576;2023-03-19T00:39:44;6.70;58.20
490;DHT22;231;48.120;11.576;2023-03-19T00:42:12;6.60;58.10
490;DHT22;231;48.120;11.576;2023-03-19T00:44:39;6.60;58.40
490;DHT22;231;48.120;11.576;2023-03-19T00:47:06;6.60;58.90
490;DHT22;231;48.120;11.576;2023-03-19T00:49:34;6.50;59.60
490;DHT22;231;48.120;11.576;2023-03-19T00:52:01;6.50;60.20
490;DHT22;231;48.120;11.576;2023-03-19T00:54:28;6.40;60.30
490;DHT22;231;48.120;11.576;2023-03-19T00:56:56;6.30;60.90
490;DHT22;231;48.120;11.576;2023-03-19T00:59:23;6.30;61.50
490;DHT22;231;48.120;11.576;2023-03-19T01:01:50;6.30;62.60
490;DHT22;231;48.120;11.576;2023-03-19T01:04:18;6.30;64.30
490;DHT22;231;48.120;11.576;2023-03-19T01:06:46;6.20;65.70
490;DHT22;231;48.120;11.576;2023-03-19T01:09:13;6.20;66.60
490;DHT22;231;48.120;11.576;2023-03-19T01:11:40;6.10;67.50
490;DHT22;231;48.120;11.576;2023-03-19T01:14:07;6.10;68.20
490;DHT22;231;48.120;11.576;2023-03-19T01:16:34;6.00;68.60
490;DHT22;231;48.120;11.576;2023-03-19T01:19:02;6.00;68.90
490;DHT22;231;48.120;11.576;2023-03-19T01:21:30;5.90;69.10
490;DHT22;231;48.120;11.576;2023-03-19T01:23:58;5.90;69.90
490;DHT22;231;48.120;11.576;2023-03-19T01:26:25;5.90;70.50
490;DHT22;231;48.120;11.576;2023-03-19T01:28:52;5.90;71.30
490;DHT22;231;48.120;11.576;2023-03-19T01:31:19;5.90;72.10
490;DHT22;231;48.120;11.576;2023-03-19T01:33:46;5.90;71.70
490;DHT22;231;48.120;11.576;2023-03-19T01:36:13;5.90;71.90
490;DHT22;231;48.120;11.576;2023-03-19T01:38:40;5.90;72.20
490;DHT22;231;48.120;11.576;2023-03-19T01:41:08;5.80;72.50
490;DHT22;231;48.120;11.576;2023-03-19T01:43:35;5.80;72.80
490;DHT22;231;48.120;11.576;2023-03-19T01:46:05;5.80;74.20
490;DHT22;231;48.120;11.576;2023-03-19T01:48:38;5.70;74.00
490;DHT22;231;48.120;11.576;2023-03-19T01:51:07;5.70;74.90
490;DHT22;231;48.120;11.576;2023-03-19T01:53:35;5.70;75.50
490;DHT22;231;48.120;11.576;2023-03-19T01:56:07;5.60;75.80
490;DHT22;231;48.120;11.576;2023-03-19T01:58:36;5.60;76.30
490;DHT22;231;48.120;11.576;2023-03-19T02:01:04;5.60;76.90
490;DHT22;231;48.120;11.576;2023-03-19T02:03:32;5.50;77.40
490;DHT22;231;48.120;11.576;2023-03-19T02:05:59;5.50;77.60
490;DHT22;231;48.120;11.576;2023-03-19T02:08:27;5.40;77.60
490;DHT22;231;48.120;11.576;2023-03-19T02:10:54;5.40;78.10
490;DHT22;231;48.120;11.576;2023-03-19T02:13:24;5.40;78.90
490;DHT22;231;48.120;11.576;2023-03-19T02:15:53;5.50;79.80
490;DHT22;231;48.120;11.576;2023-03-19T02:18:21;5.40;80.20
490;DHT22;231;48.120;11.576;2023-03-19T02:20:54;5.40;80.80
490;DHT22;231;48.120;11.576;2023-03-19T02:23:32;5.40;81.20
490;DHT22;231;48.120;11.576;2023-03-19T02:26:07;5.40;81.00
490;DHT22;231;48.120;11.576;2023-03-19T02:28:36;5.30;80.60
490;DHT22;231;48.120;11.576;2023-03-19T02:31:04;5.30;80.50
490;DHT22;231;48.120;11.576;2023-03-19T02:33:31;5.20;80.70
490;DHT22;231;48.120;11.576;2023-03-19T02:35:59;5.20;80.90
490;DHT22;231;48.120;11.576;2023-03-19T02:38:29;5.20;81.90
490;DHT22;231;48.120;11.576;2023-03-19T02:41:00;5.20;83.70
490;DHT22;231;48.120;11.576;2023-03-19T02:43:31;5.20;84.70
490;DHT22;231;48.120;11.576;2023-03-19T02:45:58;5.30;85.50
490;DHT22;231;48.120;11.576;2023-03-19T02:48:25;5.30;85.40
490;DHT22;231;48.120;11.576;2023-03-19T02:50:52;5.30;85.50
490;DHT22;231;48.120;11.576;2023-03-19T02:53:19;5.30;86.00
490;DHT22;231;48.120;11.576;2023-03-19T02:55:46;5.30;86.20
490;DHT22;231;48.120;11.576;2023-03-19T02:58:13;5.30;86.80
490;DHT22;231;48.120;11.576;2023-03-19T03:00:43;5.30;87.30
490;DHT22;231;48.120;11.576;2023-03-19T03:03:10;5.30;88.00
490;DHT22;231;48.120;11.576;2023-03-19T03:05:37;5.30;88.50
490;DHT22;231;48.120;11.576;2023-03-19T03:08:05;5.30;88.80
490;DHT22;231;48.120;11.576;2023-03-19T03:10:32;5.30;88.80
490;DHT22;231;48.120;11.576;2023-03-19T03:12:59;5.30;88.90
490;DHT22;231;48.120;11.576;2023-03-19T03:15:26;5.30;89.00
490;DHT22;231;48.120;11.576;2023-03-19T03:17:54;5.30;89.70
490;DHT22;231;48.120;11.576;2023-03-19T03:20:22;5.30;90.00
490;DHT22;231;48.120;11.576;2023-03-19T03:22:49;5.30;90.50
490;DHT22;231;48.120;11.576;2023-03-19T03:25:16;5.40;90.30
490;DHT22;231;48.120;11.576;2023-03-19T03:27:43;5.40;90.40
490;DHT22;231;48.120;11.576;2023-03-19T03:30:11;5.40;90.40
490;DHT22;231;48.120;11.576;2023-03-19T03:32:39;5.40;90.30
490;DHT22;231;48.120;11.576;2023-03-19T03:35:08;5.40;90.10
490;DHT22;231;48.120;11.576;2023-03-19T03:37:35;5.40;90.10
490;DHT22;231;48.120;11.576;2023-03-19T03:40:03;5.40;90.00
490;DHT22;231;48.120;11.576;2023-03-19T03:42:45;5.40;89.80
490;DHT22;231;48.120;11.576;2023-03-19T03:45:12;5.50;89.40
490;DHT22;231;48.120;11.576;2023-03-19T03:47:39;5.50;88.90
490;DHT22;231;48.120;11.576;2023-03-19T03:50:09;5.50;89.00
490;DHT22;231;48.120;11.576;2023-03-19T03:52:37;5.50;89.00
490;DHT22;231;48.120;11.576;2023-03-19T03:55:05;5.50;89.00
490;DHT22;231;48.120;11.576;2023-03-19T03:57:33;5.60;89.10
490;DHT22;231;48.120;11.576;2023-03-19T04:00:00;5.60;89.00
490;DHT22;231;48.120;11.576;2023-03-19T04:02:27;5.70;88.90
490;DHT22;231;48.120;11.576;2023-03-19T04:04:54;5.70;88.40
490;DHT22;231;48.120;11.576;2023-03-19T04:07:23;5.80;88.20
490;DHT22;231;48.120;11.576;2023-03-19T04:09:50;5.80;87.40
490;DHT22;231;48.120;11.576;2023-03-19T04:12:17;5.80;86.20
490;DHT22;231;48.120;11.576;2023-03-19T04:14:44;5.80;84.70
490;DHT22;231;48.120;11.576;2023-03-19T04:17:11;5.80;83.50
490;DHT22;231;48.120;11.576;2023-03-19T04:19:38;5.90;83.00
490;DHT22;231;48.120;11.576;2023-03-19T04:22:05;5.90;81.10
490;DHT22;231;48.120;11.576;2023-03-19T04:24:34;5.90;80.10
490;DHT22;231;48.120;11.576;2023-03-19T04:27:01;5.90;79.10
490;DHT22;231;48.120;11.576;2023-03-19T04:29:28;5.90;78.40
490;DHT22;231;48.120;11.576;2023-03-19T04:31:55;5.90;77.90
490;DHT22;231;48.120;11.576;2023-03-19T04:34:22;5.90;77.50
490;DHT22;231;48.120;11.576;2023-03-19T04:36:50;5.90;77.40
490;DHT22;231;48.120;11.576;2023-03-19T04:39:17;5.90;77.40
490;DHT22;231;48.120;11.576;2023-03-19T04:41:45;5.90;77.10
490;DHT22;231;48.120;11.576;2023-03-19T04:44:13;6.00;77.10
490;DHT22;231;48.120;11.576;2023-03-19T04:46:40;6.00;77.10
490;DHT22;231;48.120;11.576;2023-03-19T04:49:09;6.00;76.70
490;DHT22;231;48.120;11.576;2023-03-19T04:51:36;6.00;76.30
490;DHT22;231;48.120;11.576;2023-03-19T04:54:03;6.00;75.70
490;DHT22;231;48.120;11.576;2023-03-19T04:56:30;6.10;75.20
490;DHT22;231;48.120;11.576;2023-03-19T04:58:59;6.10;74.80
490;DHT22;231;48.120;11.576;2023-03-19T05:01:25;6.10;74.90
490;DHT22;231;48.120;11.576;2023-03-19T05:03:53;6.20;75.10
490;DHT22;231;48.120;11.576;2023-03-19T05:06:19;6.20;74.70
490;DHT22;231;48.120;11.576;2023-03-19T05:08:47;6.20;74.50
490;DHT22;231;48.120;11.576;2023-03-19T05:11:14;6.30;74.30
490;DHT22;231;48.120;11.576;2023-03-19T05:13:41;6.30;73.60
490;DHT22;231;48.120;11.576;2023-03-19T05:16:09;6.40;73.10
490;DHT22;231;48.120;11.576;2023-03-19T05:18:37;6.40;72.60
490;DHT22;231;48.120;11.576;2023-03-19T05:21:04;6.60;72.10
490;DHT22;231;48.120;11.576;2023-03-19T05:23:31;6.60;71.30
490;DHT22;231;48.120;11.576;2023-03-19T05:25:58;6.70;70.00
490;DHT22;231;48.120;11.576;2023-03-19T05:28:26;6.90;68.40
490;DHT22;231;48.120;11.576;2023-03-19T05:30:53;7.00;66.80
490;DHT22;231;48.120;11.576;2023-03-19T05:33:22;7.10;64.60
490;DHT22;231;48.120;11.576;2023-03-19T05:35:49;7.20;63.00
490;DHT22;231;48.120;11.576;2023-03-19T05:38:16;7.30;61.10
490;DHT22;231;48.120;11.576;2023-03-19T05:40:43;7.40;59.30
490;DHT22;231;48.120;11.576;2023-03-19T05:43:11;7.50;57.70
490;DHT22;231;48.120;11.576;2023-03-19T05:45:38;7.60;56.00
490;DHT22;231;48.120;11.576;2023-03-19T05:48:07;7.70;54.40
490;DHT22;231;48.120;11.576;2023-03-19T05:50:35;7.80;52.60
490;DHT22;231;48.120;11.576;2023-03-19T05:53:02;7.90;51.20
490;DHT22;231;48.120;11.576;2023-03-19T05:55:29;8.00;50.00
490;DHT22;231;48.120;11.576;2023-03-19T05:57:56;8.10;48.80
490;DHT22;231;48.120;11.576;2023-03-19T06:00:23;8.20;47.30
490;DHT22;231;48.120;11.576;2023-03-19T06:02:50;8.40;45.80
490;DHT22;231;48.120;11.576;2023-03-19T06:05:19;8.50;45.00
490;DHT22;231;48.120;11.576;2023-03-19T06:07:47;8.60;42.80
490;DHT22;231;48.120;11.576;2023-03-19T06:10:15;8.70;41.40
490;DHT22;231;48.120;11.576;2023-03-19T06:12:42;8.80;40.30
490;DHT22;231;48.120;11.576;2023-03-19T06:15:09;8.90;39.30
490;DHT22;231;48.120;11.576;2023-03-19T06:17:36;9.00;38.20
490;DHT22;231;48.120;11.576;2023-03-19T06:20:04;9.20;37.40
490;DHT22;231;48.120;11.576;2023-03-19T06:22:31;9.30;35.90
490;DHT22;231;48.120;11.576;2023-03-19T06:24:59;9.40;34.70
490;DHT22;231;48.120;11.576;2023-03-19T06:27:26;9.50;34.10
490;DHT22;231;48.120;11.576;2023-03-19T06:29:53;9.60;33.70
490;DHT22;231;48.120;11.576;2023-03-19T06:32:20;9.70;32.40
490;DHT22;231;48.120;11.576;2023-03-19T06:34:47;9.80;31.30
490;DHT22;231;48.120;11.576;2023-03-19T06:37:13;9.90;30.50
490;DHT22;231;48.120;11.576;2023-03-19T06:39:41;10.00;29.30
490;DHT22;231;48.120;11.576;2023-03-19T06:42:09;10.00;28.90
490;DHT22;231;48.120;11.576;2023-03-19T06:44:36;10.10;28.60
490;DHT22;231;48.120;11.576;2023-03-19T06:47:04;10.20;28.00
490;DHT22;231;48.120;11.576;2023-03-19T06:49:31;10.20;27.80
490;DHT22;231;48.120;11.576;2023-03-19T06:51:58;10.30;27.60
490;DHT22;231;48.120;11.576;2023-03-19T06:54:25;10.30;27.20
490;DHT22;231;48.120;11.576;2023-03-19T06:56:52;10.40;27.00
490;DHT22;231;48.120;11.576;2023-03-19T06:59:21;10.40;26.80
490;DHT22;231;48.120;11.576;2023-03-19T07:01:48;10.40;26.70
490;DHT22;231;48.120;11.576;2023-03-19T07:04:15;10.50;26.80
490;DHT22;231;48.120;11.576;2023-03-19T07:06:42;10.60;27.30
490;DHT22;231;48.120;11.576;2023-03-19T07:09:12;10.60;27.80
490;DHT22;231;48.120;11.576;2023-03-19T07:11:40;10.70;27.90
490;DHT22;231;48.120;11.576;2023-03-19T07:14:08;10.70;27.80
490;DHT22;231;48.120;11.576;2023-03-19T07:16:37;10.80;27.10
490;DHT22;231;48.120;11.576;2023-03-19T07:19:04;10.90;26.20
490;DHT22;231;48.120;11.576;2023-03-19T07:21:32;11.00;25.50
490;DHT22;231;48.120;11.576;2023-03-19T07:23:59;11.10;25.10
490;DHT22;231;48.120;11.576;2023-03-19T07:26:25;11.20;24.70
490;DHT22;231;48.120;11.576;2023-03-19T07:28:53;11.40;23.80
490;DHT22;231;48.120;11.576;2023-03-19T07:31:20;11.60;22.90
490;DHT22;231;48.120;11.576;2023-03-19T07:33:48;11.70;22.40
490;DHT22;231;48.120;11.576;2023-03-19T07:36:15;11.80;21.60
490;DHT22;231;48.120;11.576;2023-03-19T07:38:42;11.90;21.40
490;DHT22;231;48.120;11.576;2023-03-19T07:41:09;12.00;21.30
490;DHT22;231;48.120;11.576;2023-03-19T07:43:37;12.00;21.00
490;DHT22;231;48.120;11.576;2023-03-19T07:46:04;12.10;21.00
490;DHT22;231;48.120;11.576;2023-03-19T07:48:31;12.10;21.00
490;DHT22;231;48.120;11.576;2023-03-19T07:50:59;12.10;21.80
490;DHT22;231;48.120;11.576;2023-03-19T07:53:26;12.20;21.40
490;DHT22;231;48.120;11.576;2023-03-19T07:55:53;12.30;21.10
490;DHT22;231;48.120;11.576;2023-03-19T07:58:20;12.40;20.90
490;DHT22;231;48.120;11.576;2023-03-19T08:00:47;12.50;20.90
490;DHT22;231;48.120;11.576;2023-03-19T08:03:14;12.60;20.10
490;DHT22;231;48.120;11.576;2023-03-19T08:05:41;12.80;19.70
490;DHT22;231;48.120;11.576;2023-03-19T08:08:09;12.90;19.40
490;DHT22;231;48.120;11.576;2023-03-19T08:10:37;13.00;20.00
490;DHT22;231;48.120;11.576;2023-03-19T08:13:04;13.10;21.20
490;DHT22;231;48.120;11.576;2023-03-19T08:15:31;13.10;20.90
490;DHT22;231;48.120;11.576;2023-03-19T08:17:58;13.10;22.70
490;DHT22;231;48.120;11.576;2023-03-19T08:20:26;13.10;24.60
490;DHT22;231;48.120;11.576;2023-03-19T08:22:53;13.00;23.90
490;DHT22;231;48.120;11.576;2023-03-19T08:27:50;12.80;24.90
490;DHT22;231;48.120;11.576;2023-03-19T08:30:19;12.80;26.10
490;DHT22;231;48.120;11.576;2023-03-19T08:32:46;12.80;26.80
490;DHT22;231;48.120;11.576;2023-03-19T08:35:13;12.80;26.10
490;DHT22;231;48.120;11.576;2023-03-19T08:37:40;12.80;26.10
490;DHT22;231;48.120;11.576;2023-03-19T08:40:08;12.80;25.50
490;DHT22;231;48.120;11.576;2023-03-19T08:42:35;12.80;24.10
490;DHT22;231;48.120;11.576;2023-03-19T08:45:09;12.80;24.20
490;DHT22;231;48.120;11.576;2023-03-19T08:47:36;12.80;23.40
490;DHT22;231;48.120;11.576;2023-03-19T08:50:04;12.80;23.10
490;DHT22;231;48.120;11.576;2023-03-19T08:52:32;12.80;23.30
490;DHT22;231;48.120;11.576;2023-03-19T08:54:59;12.80;23.20
490;DHT22;231;48.120;11.576;2023-03-19T08:57:26;12.90;22.90
490;DHT22;231;48.120;11.576;2023-03-19T08:59:53;13.00;22.50
490;DHT22;231;48.120;11.576;2023-03-19T09:02:21;13.00;22.10
490;DHT22;231;48.120;11.576;2023-03-19T09:04:48;13.20;21.90
490;DHT22;231;48.120;11.576;2023-03-19T09:07:15;13.20;20.70
490;DHT22;231;48.120;11.576;2023-03-19T09:09:43;13.30;20.10
490;DHT22;231;48.120;11.576;2023-03-19T09:12:12;13.40;19.70
490;DHT22;231;48.120;11.576;2023-03-19T09:14:40;13.50;19.60
490;DHT22;231;48.120;11.576;2023-03-19T09:17:09;13.70;19.10
490;DHT22;231;48.120;11.576;2023-03-19T09:19:39;13.80;18.50
490;DHT22;231;48.120;11.576;2023-03-19T09:22:06;14.00;18.40
490;DHT22;231;48.120;11.576;2023-03-19T09:24:33;14.20;17.10
490;DHT22;231;48.120;11.576;2023-03-19T09:26:59;14.50;16.30
490;DHT22;231;48.120;11.576;2023-03-19T09:29:27;15.00;16.10
490;DHT22;231;48.120;11.576;2023-03-19T09:31:54;15.70;14.90
490;DHT22;231;48.120;11.576;2023-03-19T09:34:21;16.30;12.80
490;DHT22;231;48.120;11.576;2023-03-19T09:36:49;16.70;11.00
490;DHT22;231;48.120;11.576;2023-03-19T09:39:16;17.00;9.80
490;DHT22;231;48.120;11.576;2023-03-19T09:41:52;17.20;9.20
490;DHT22;231;48.120;11.576;2023-03-19T09:44:27;17.10;9.90
490;DHT22;231;48.120;11.576;2023-03-19T09:46:59;17.00;11.80
490;DHT22;231;48.120;11.576;2023-03-19T09:49:31;16.90;12.70
490;DHT22;231;48.120;11.576;2023-03-19T09:52:05;16.80;13.30
490;DHT22;231;48.120;11.576;2023-03-19T09:54:38;16.60;13.20
490;DHT22;231;48.120;11.576;2023-03-19T09:57:08;16.30;14.50
490;DHT22;231;48.120;11.576;2023-03-19T09:59:36;16.10;14.80
490;DHT22;231;48.120;11.576;2023-03-19T10:05:18;15.70;15.20
490;DHT22;231;48.120;11.576;2023-03-19T10:07:59;15.60;14.40
490;DHT22;231;48.120;11.576;2023-03-19T10:10:38;15.60;13.60
490;DHT22;231;48.120;11.576;2023-03-19T10:13:17;15.80;12.40
490;DHT22;231;48.120;11.576;2023-03-19T10:15:53;16.10;12.20
490;DHT22;231;48.120;11.576;2023-03-19T10:18:23;16.40;10.70
490;DHT22;231;48.120;11.576;2023-03-19T10:20:54;16.80;9.30
490;DHT22;231;48.120;11.576;2023-03-19T10:23:37;17.30;8.00
490;DHT22;231;48.120;11.576;2023-03-19T10:26:09;18.10;6.90
490;DHT22;231;48.120;11.576;2023-03-19T10:28:39;18.90;4.80
490;DHT22;231;48.120;11.576;2023-03-19T10:31:19;19.60;3.20
490;DHT22;231;48.120;11.576;2023-03-19T10:33:52;20.10;1.60
490;DHT22;231;48.120;11.576;2023-03-19T10:36:26;20.40;1.00
490;DHT22;231;48.120;11.576;2023-03-19T10:38:54;20.70;1.00
490;DHT22;231;48.120;11.576;2023-03-19T10:41:31;20.80;1.00
490;DHT22;231;48.120;11.576;2023-03-19T10:44:02;20.70;1.00
490;DHT22;231;48.120;11.576;2023-03-19T10:49:11;20.10;1.00
490;DHT22;231;48.120;11.576;2023-03-19T10:52:06;19.70;1.00
490;DHT22;231;48.120;11.576;2023-03-19T10:55:05;19.50;1.00
490;DHT22;231;48.120;11.576;2023-03-19T10:57:40;19.40;1.10
490;DHT22;231;48.120;11.576;2023-03-19T11:00:15;19.60;1.00
490;DHT22;231;48.120;11.576;2023-03-19T11:02:46;19.90;1.00
490;DHT22;231;48.120;11.576;2023-03-19T11:05:25;20.30;1.00
490;DHT22;231;48.120;11.576;2023-03-19T11:07:55;20.60;1.00
490;DHT22;231;48.120;11.576;2023-03-19T11:10:26;20.90;1.00
490;DHT22;231;48.120;11.576;2023-03-19T11:12:58;21.10;1.00
490;DHT22;231;48.120;11.576;2023-03-19T11:15:31;21.20;1.00
490;DHT22;231;48.120;11.576;2023-03-19T11:18:07;21.10;1.00
490;DHT22;231;48.120;11.576;2023-03-19T11:20:36;20.90;1.00
490;DHT22;231;48.120;11.576;2023-03-19T11:23:11;20.50;1.00
490;DHT22;231;48.120;11.576;2023-03-19T11:25:49;20.30;1.00
490;DHT22;231;48.120;11.576;2023-03-19T11:28:18;20.30;1.00
490;DHT22;231;48.120;11.576;2023-03-19T11:30:52;20.50;1.00
490;DHT22;231;48.120;11.576;2023-03-19T11:36:23;20.50;1.00
490;DHT22;231;48.120;11.576;2023-03-19T11:39:01;20.30;1.00
490;DHT22;231;48.120;11.576;2023-03-19T11:41:44;20.10;1.00
490;DHT22;231;48.120;11.576;2023-03-19T11:44:17;20.10;1.00
490;DHT22;231;48.120;11.576;2023-03-19T11:46:51;20.10;1.00
490;DHT22;231;48.120;11.576;2023-03-19T11:49:48;20.30;1.00
490;DHT22;231;48.120;11.576;2023-03-19T11:52:22;20.60;1.00
490;DHT22;231;48.120;11.576;2023-03-19T11:55:13;20.90;1.00
490;DHT22;231;48.120;11.576;2023-03-19T11:57:56;21.10;1.00
490;DHT22;231;48.120;11.576;2023-03-19T12:00:29;21.10;1.00
490;DHT22;231;48.120;11.576;2023-03-19T12:03:27;21.50;1.00
490;DHT22;231;48.120;11.576;2023-03-19T12:05:59;22.20;1.00
490;DHT22;231;48.120;11.576;2023-03-19T12:08:32;23.10;1.00
490;DHT22;231;48.120;11.576;2023-03-19T12:11:09;24.10;1.00
490;DHT22;231;48.120;11.576;2023-03-19T12:16:37;25.20;1.00
490;DHT22;231;48.120;11.576;2023-03-19T12:19:27;25.00;1.00
490;DHT22;231;48.120;11.576;2023-03-19T12:22:08;25.20;1.00
490;DHT22;231;48.120;11.576;2023-03-19T12:24:55;25.80;1.00
490;DHT22;231;48.120;11.576;2023-03-19T12:27:31;26.40;1.00
490;DHT22;231;48.120;11.576;2023-03-19T12:30:07;26.80;1.00
490;DHT22;231;48.120;11.576;2023-03-19T12:33:09;26.70;1.00
490;DHT22;231;48.120;11.576;2023-03-19T12:35:38;27.20;1.00
490;DHT22;231;48.120;11.576;2023-03-19T12:38:11;27.90;1.00
490;DHT22;231;48.120;11.576;2023-03-19T12:40:42;28.10;1.00
490;DHT22;231;48.120;11.576;2023-03-19T12:43:16;28.00;1.00
490;DHT22;231;48.120;11.576;2023-03-19T12:45:47;27.90;1.00
490;DHT22;231;48.120;11.576;2023-03-19T12:48:20;28.00;1.00
490;DHT22;231;48.120;11.576;2023-03-19T12:50:51;27.70;1.00
490;DHT22;231;48.120;11.576;2023-03-19T12:53:27;27.20;1.00
490;DHT22;231;48.120;11.576;2023-03-19T12:55:59;26.40;1.00
490;DHT22;231;48.120;11.576;2023-03-19T12:58:34;25.50;1.00
490;DHT22;231;48.120;11.576;2023-03-19T13:01:08;24.50;1.00
490;DHT22;231;48.120;11.576;2023-03-19T13:03:51;23.80;1.00
490;DHT22;231;48.120;11.576;2023-03-19T13:06:33;23.10;1.00
490;DHT22;231;48.120;11.576;2023-03-19T13:09:05;22.60;1.00
490;DHT22;231;48.120;11.576;2023-03-19T13:11:38;22.20;1.00
490;DHT22;231;48.120;11.576;2023-03-19T13:14:19;21.90;1.00
490;DHT22;231;48.120;11.576;2023-03-19T13:16:54;21.60;1.00
490;DHT22;231;48.120;11.576;2023-03-19T13:19:28;21.40;1.00
490;DHT22;231;48.120;11.576;2023-03-19T13:21:59;21.40;1.00
490;DHT22;231;48.120;11.576;2023-03-19T13:24:31;21.30;1.00
490;DHT22;231;48.120;11.576;2023-03-19T13:27:00;21.30;1.00
490;DHT22;231;48.120;11.576;2023-03-19T13:29:28;21.30;1.00
490;DHT22;231;48.120;11.576;2023-03-19T13:32:02;21.30;1.00
490;DHT22;231;48.120;11.576;2023-03-19T13:34:32;21.40;1.00
490;DHT22;231;48.120;11.576;2023-03-19T13:37:10;21.30;1.00
490;DHT22;231;48.120;11.576;2023-03-19T13:39:42;21.10;1.00
490;DHT22;231;48.120;11.576;2023-03-19T13:45:00;20.30;1.00
490;DHT22;231;48.120;11.576;2023-03-19T13:47:39;19.80;1.00
490;DHT22;231;48.120;11.576;2023-03-19T13:50:26;19.20;1.00
490;DHT22;231;48.120;11.576;2023-03-19T13:53:21;18.60;1.00
490;DHT22;231;48.120;11.576;2023-03-19T13:55:52;18.20;1.00
490;DHT22;231;48.120;11.576;2023-03-19T13:58:22;18.00;1.00
490;DHT22;231;48.120;11.576;2023-03-19T14:04:22;17.70;1.00
490;DHT22;231;48.120;11.576;2023-03-19T14:06:55;17.50;1.00
490;DHT22;231;48.120;11.576;2023-03-19T14:09:41;17.30;1.00
490;DHT22;231;48.120;11.576;2023-03-19T14:12:33;17.20;1.00
490;DHT22;231;48.120;11.576;2023-03-19T14:15:13;17.10;1.00
490;DHT22;231;48.120;11.576;2023-03-19T14:17:44;17.10;1.00
490;DHT22;231;48.120;11.576;2023-03-19T14:20:25;17.10;1.00
490;DHT22;231;48.120;11.576;2023-03-19T14:22:56;17.20;1.00
490;DHT22;231;48.120;11.576;2023-03-19T14:28:50;17.90;1.00
490;DHT22;231;48.120;11.576;2023-03-19T14:31:23;18.40;1.00
490;DHT22;231;48.120;11.576;2023-03-19T14:36:27;19.20;1.00
490;DHT22;231;48.120;11.576;2023-03-19T14:38:58;19.40;1.00
490;DHT22;231;48.120;11.576;2023-03-19T14:41:28;19.40;1.00
490;DHT22;231;48.120;11.576;2023-03-19T14:50:39;18.90;1.00
490;DHT22;231;48.120;11.576;2023-03-19T14:53:18;18.70;1.00
490;DHT22;231;48.120;11.576;2023-03-19T14:55:49;18.60;1.00
490;DHT22;231;48.120;11.576;2023-03-19T14:58:18;18.60;1.00
490;DHT22;231;48.120;11.576;2023-03-19T15:00:47;18.60;1.00
490;DHT22;231;48.120;11.576;2023-03-19T15:03:27;18.50;1.00
490;DHT22;231;48.120;11.576;2023-03-19T15:05:56;18.40;1.00
490;DHT22;231;48.120;11.576;2023-03-19T15:08:26;18.30;1.00
490;DHT22;231;48.120;11.576;2023-03-19T15:11:24;18.30;1.00
490;DHT22;231;48.120;11.576;2023-03-19T15:14:10;18.20;1.00
490;DHT22;231;48.120;11.576;2023-03-19T15:16:46;18.20;1.00
490;DHT22;231;48.120;11.576;2023-03-19T15:19:21;18.20;1.00
490;DHT22;231;48.120;11.576;2023-03-19T15:21:50;18.00;1.00
490;DHT22;231;48.120;11.576;2023-03-19T15:24:18;17.90;1.00
490;DHT22;231;48.120;11.576;2023-03-19T15:26:45;17.70;1.00
490;DHT22;231;48.120;11.576;2023-03-19T15:29:14;17.50;1.00
490;DHT22;231;48.120;11.576;2023-03-19T15:31:42;17.30;1.00
490;DHT22;231;48.120;11.576;2023-03-19T15:34:18;17.10;1.00
490;DHT22;231;48.120;11.576;2023-03-19T15:36:45;16.80;1.00
490;DHT22;231;48.120;11.576;2023-03-19T15:39:17;16.60;1.00
490;DHT22;231;48.120;11.576;2023-03-19T15:41:46;16.40;1.00
490;DHT22;231;48.120;11.576;2023-03-19T15:44:17;16.20;1.00
490;DHT22;231;48.120;11.576;2023-03-19T15:46:45;16.00;1.00
490;DHT22;231;48.120;11.576;2023-03-19T15:49:14;15.80;1.00
490;DHT22;231;48.120;11.576;2023-03-19T15:51:45;15.70;1.00
490;DHT22;231;48.120;11.576;2023-03-19T15:54:17;15.60;1.00
490;DHT22;231;48.120;11.576;2023-03-19T15:56:47;15.60;1.00
490;DHT22;231;48.120;11.576;2023-03-19T15:59:17;15.70;1.00
490;DHT22;231;48.120;11.576;2023-03-19T16:01:45;15.70;1.00
490;DHT22;231;48.120;11.576;2023-03-19T16:04:16;15.60;1.00
490;DHT22;231;48.120;11.576;2023-03-19T16:06:46;15.50;1.00
490;DHT22;231;48.120;11.576;2023-03-19T16:09:21;15.40;1.20
490;DHT22;231;48.120;11.576;2023-03-19T16:11:49;15.30;1.30
490;DHT22;231;48.120;11.576;2023-03-19T16:14:22;15.10;1.50
490;DHT22;231;48.120;11.576;2023-03-19T16:16:51;15.00;1.50
490;DHT22;231;48.120;11.576;2023-03-19T16:19:30;14.90;1.90
490;DHT22;231;48.120;11.576;2023-03-19T16:21:57;14.80;1.80
490;DHT22;231;48.120;11.576;2023-03-19T16:24:29;14.70;2.20
490;DHT22;231;48.120;11.576;2023-03-19T16:26:58;14.60;2.40
490;DHT22;231;48.120;11.576;2023-03-19T16:29:29;14.40;2.70
490;DHT22;231;48.120;11.576;2023-03-19T16:31:59;14.30;2.90
490;DHT22;231;48.120;11.576;2023-03-19T16:34:36;14.10;3.10
490;DHT22;231;48.120;11.576;2023-03-19T16:37:33;14.00;4.00
490;DHT22;231;48.120;11.576;2023-03-19T16:40:42;13.90;4.00
490;DHT22;231;48.120;11.576;2023-03-19T16:43:18;13.70;4.30
490;DHT22;231;48.120;11.576;2023-03-19T16:45:49;13.50;5.20
490;DHT22;231;48.120;11.576;2023-03-19T16:48:16;13.50;5.70
490;DHT22;231;48.120;11.576;2023-03-19T16:50:43;13.40;6.20
490;DHT22;231;48.120;11.576;2023-03-19T16:53:22;13.30;6.50
490;DHT22;231;48.120;11.576;2023-03-19T16:55:52;13.30;6.70
490;DHT22;231;48.120;11.576;2023-03-19T16:58:25;13.30;6.90
490;DHT22;231;48.120;11.576;2023-03-19T17:00:54;13.20;7.30
490;DHT22;231;48.120;11.576;2023-03-19T17:03:20;13.10;7.50
490;DHT22;231;48.120;11.576;2023-03-19T17:05:47;13.00;7.70
490;DHT22;231;48.120;11.576;2023-03-19T17:08:14;12.90;8.00
490;DHT22;231;48.120;11.576;2023-03-19T17:10:43;12.90;8.20
490;DHT22;231;48.120;11.576;2023-03-19T17:13:16;12.90;8.90
490;DHT22;231;48.120;11.576;2023-03-19T17:15:44;12.80;8.40
490;DHT22;231;48.120;11.576;2023-03-19T17:18:15;12.70;8.80
490;DHT22;231;48.120;11.576;2023-03-19T17:20:48;12.60;9.40
490;DHT22;231;48.120;11.576;2023-03-19T17:23:16;12.50;9.80
490;DHT22;231;48.120;11.576;2023-03-19T17:25:43;12.40;10.20